This is the latest recevied weather packets stored in our database for station/object SQ5OUZ-8. If no packets are shown the sender has not sent any weather packets the latest 10 day(s).
| Time | Temp. | Humidity | Pressure | Rain* | Wind** | Luminosity | Snow |
|---|---|---|---|---|---|---|---|
| 1777536969 | 14.44° C | 19% | 1031 hPa | - | - | - | - |
| 1777535989 | 13.33° C | 23% | 1031 hPa | - | - | - | - |
| 1777534896 | 13.89° C | 24% | 1031 hPa | - | - | - | - |
| 1777533767 | 12.78° C | 27% | 1031 hPa | - | - | - | - |
| 1777532779 | 12.22° C | 30% | 1032 hPa | - | - | - | - |
| 1777531713 | 11.67° C | 32% | 1032 hPa | - | - | - | - |
| 1777530574 | 10.56° C | 36% | 1032 hPa | - | - | - | - |
| 1777529616 | 10° C | 39% | 1032 hPa | - | - | - | - |
| 1777528456 | 7.78° C | 46% | 1032 hPa | - | - | - | - |
| 1777527340 | 3.33° C | 63% | 1032 hPa | - | - | - | - |
| 1777526215 | 2.78° C | 66% | 1032 hPa | - | - | - | - |
| 1777525214 | 2.22° C | 68% | 1032 hPa | - | - | - | - |
| 1777524223 | 1.67° C | 73% | 1032 hPa | - | - | - | - |
| 1777523094 | 1.11° C | 76% | 1032 hPa | - | - | - | - |
| 1777522085 | 0.56° C | 77% | 1032 hPa | - | - | - | - |
| 1777521083 | 0.56° C | 78% | 1032 hPa | - | - | - | - |
| 1777519941 | 0.56° C | 79% | 1032 hPa | - | - | - | - |
| 1777518756 | 0° C | 81% | 1032 hPa | - | - | - | - |
| 1777517758 | 0° C | 81% | 1032 hPa | - | - | - | - |
| 1777516622 | 0.56° C | 80% | 1032 hPa | - | - | - | - |
| 1777515631 | 0.56° C | 80% | 1032 hPa | - | - | - | - |
| 1777514497 | 0.56° C | 78% | 1032 hPa | - | - | - | - |
| 1777513503 | 0.56° C | 78% | 1032 hPa | - | - | - | - |
| 1777512458 | 0.56° C | 78% | 1032 hPa | - | - | - | - |
| 1777511404 | 0.56° C | 78% | 1032 hPa | - | - | - | - |
* Rain since midnight (hover to see other rain measurements)
** Current wind speed in m/s (hover to see current wind gust speed)